sensor_id;sensor_type;location;lat;lon;timestamp;noise_LAeq;noise_LA_min;noise_LA_max;noise_LA01;noise_LA95
67306;Laerm;57661;51.436;5.978;2023-04-05T00:00:10;28.84;27.41;33.42;;
67306;Laerm;57661;51.436;5.978;2023-04-05T00:00:20;28.23;27.22;29.18;;
67306;Laerm;57661;51.436;5.978;2023-04-05T00:00:31;28.22;27.47;28.98;;
67306;Laerm;57661;51.436;5.978;2023-04-05T00:00:44;28.25;27.37;29.31;;
67306;Laerm;57661;51.436;5.978;2023-04-05T00:00:54;28.20;27.25;29.11;;
67306;Laerm;57661;51.436;5.978;2023-04-05T00:01:05;28.20;27.11;29.03;;
67306;Laerm;57661;51.436;5.978;2023-04-05T00:01:18;28.23;27.26;29.35;;
67306;Laerm;57661;51.436;5.978;2023-04-05T00:01:29;28.20;27.30;29.22;;
67306;Laerm;57661;51.436;5.978;2023-04-05T00:01:40;28.23;27.31;29.07;;
67306;Laerm;57661;51.436;5.978;2023-04-05T00:01:50;28.24;27.18;29.23;;
67306;Laerm;57661;51.436;5.978;2023-04-05T00:02:02;28.23;27.27;29.15;;
67306;Laerm;57661;51.436;5.978;2023-04-05T00:02:13;28.23;26.94;29.14;;
67306;Laerm;57661;51.436;5.978;2023-04-05T00:02:27;28.21;27.20;29.14;;
67306;Laerm;57661;51.436;5.978;2023-04-05T00:02:38;28.22;27.48;29.27;;
67306;Laerm;57661;51.436;5.978;2023-04-05T00:02:50;28.24;27.35;29.23;;
67306;Laerm;57661;51.436;5.978;2023-04-05T00:03:01;28.23;27.24;29.00;;
67306;Laerm;57661;51.436;5.978;2023-04-05T00:03:12;28.25;27.18;29.10;;
67306;Laerm;57661;51.436;5.978;2023-04-05T00:03:23;28.27;27.25;29.14;;
67306;Laerm;57661;51.436;5.978;2023-04-05T00:03:33;28.23;27.20;29.06;;
67306;Laerm;57661;51.436;5.978;2023-04-05T00:03:44;28.21;27.46;29.05;;
67306;Laerm;57661;51.436;5.978;2023-04-05T00:03:54;28.23;27.44;29.12;;
67306;Laerm;57661;51.436;5.978;2023-04-05T00:04:07;28.24;27.11;29.18;;
67306;Laerm;57661;51.436;5.978;2023-04-05T00:04:17;28.38;27.37;29.47;;
67306;Laerm;57661;51.436;5.978;2023-04-05T00:04:29;36.45;28.12;45.64;;
67306;Laerm;57661;51.436;5.978;2023-04-05T00:04:43;37.29;31.57;44.58;;
67306;Laerm;57661;51.436;5.978;2023-04-05T00:05:01;31.81;27.59;40.07;;
67306;Laerm;57661;51.436;5.978;2023-04-05T00:05:12;28.38;27.39;29.36;;
67306;Laerm;57661;51.436;5.978;2023-04-05T00:05:22;28.36;27.39;29.27;;
67306;Laerm;57661;51.436;5.978;2023-04-05T00:05:39;28.26;27.21;29.27;;
67306;Laerm;57661;51.436;5.978;2023-04-05T00:05:49;28.20;27.33;29.07;;
67306;Laerm;57661;51.436;5.978;2023-04-05T00:06:00;28.25;27.21;29.22;;
67306;Laerm;57661;51.436;5.978;2023-04-05T00:06:11;28.24;27.30;29.12;;
67306;Laerm;57661;51.436;5.978;2023-04-05T00:06:28;28.25;27.31;29.14;;
67306;Laerm;57661;51.436;5.978;2023-04-05T00:06:38;28.25;27.27;29.17;;
67306;Laerm;57661;51.436;5.978;2023-04-05T00:06:52;28.32;27.32;29.82;;
67306;Laerm;57661;51.436;5.978;2023-04-05T00:07:03;36.13;28.25;44.61;;
67306;Laerm;57661;51.436;5.978;2023-04-05T00:07:17;35.45;28.86;41.13;;
67306;Laerm;57661;51.436;5.978;2023-04-05T00:07:28;28.61;27.43;31.55;;
67306;Laerm;57661;51.436;5.978;2023-04-05T00:07:38;28.27;27.21;29.16;;
67306;Laerm;57661;51.436;5.978;2023-04-05T00:07:48;28.21;27.24;29.00;;
67306;Laerm;57661;51.436;5.978;2023-04-05T00:08:03;28.24;27.18;29.18;;
67306;Laerm;57661;51.436;5.978;2023-04-05T00:08:17;28.24;27.27;29.11;;
67306;Laerm;57661;51.436;5.978;2023-04-05T00:08:33;28.23;27.36;29.00;;
67306;Laerm;57661;51.436;5.978;2023-04-05T00:08:43;28.23;27.24;29.04;;
67306;Laerm;57661;51.436;5.978;2023-04-05T00:08:59;28.24;27.34;29.38;;
67306;Laerm;57661;51.436;5.978;2023-04-05T00:09:10;28.20;27.15;29.20;;
67306;Laerm;57661;51.436;5.978;2023-04-05T00:09:20;28.20;27.22;29.21;;
67306;Laerm;57661;51.436;5.978;2023-04-05T00:09:30;28.23;27.23;29.31;;
67306;Laerm;57661;51.436;5.978;2023-04-05T00:09:40;28.24;27.15;29.19;;
67306;Laerm;57661;51.436;5.978;2023-04-05T00:09:51;28.24;27.31;29.35;;
67306;Laerm;57661;51.436;5.978;2023-04-05T00:10:01;28.21;27.28;28.97;;
67306;Laerm;57661;51.436;5.978;2023-04-05T00:10:11;28.22;27.38;29.08;;
67306;Laerm;57661;51.436;5.978;2023-04-05T00:10:22;28.23;27.51;29.32;;
67306;Laerm;57661;51.436;5.978;2023-04-05T00:10:32;28.22;27.31;29.01;;
67306;Laerm;57661;51.436;5.978;2023-04-05T00:10:42;28.22;27.35;29.28;;
67306;Laerm;57661;51.436;5.978;2023-04-05T00:10:53;28.23;27.32;29.29;;
67306;Laerm;57661;51.436;5.978;2023-04-05T00:11:03;28.24;27.17;29.14;;
67306;Laerm;57661;51.436;5.978;2023-04-05T00:11:13;28.24;27.14;29.12;;
67306;Laerm;57661;51.436;5.978;2023-04-05T00:11:27;28.23;27.14;29.23;;
67306;Laerm;57661;51.436;5.978;2023-04-05T00:11:38;28.20;27.22;29.13;;
67306;Laerm;57661;51.436;5.978;2023-04-05T00:11:49;28.23;27.36;29.22;;
67306;Laerm;57661;51.436;5.978;2023-04-05T00:11:59;28.19;27.28;29.01;;
67306;Laerm;57661;51.436;5.978;2023-04-05T00:12:09;28.20;27.17;29.05;;
67306;Laerm;57661;51.436;5.978;2023-04-05T00:12:19;28.26;27.36;29.21;;
67306;Laerm;57661;51.436;5.978;2023-04-05T00:12:30;28.25;27.30;29.22;;
67306;Laerm;57661;51.436;5.978;2023-04-05T00:12:40;28.18;27.38;29.01;;
67306;Laerm;57661;51.436;5.978;2023-04-05T00:12:50;28.23;27.30;29.10;;
67306;Laerm;57661;51.436;5.978;2023-04-05T00:13:01;28.24;27.31;29.24;;
67306;Laerm;57661;51.436;5.978;2023-04-05T00:13:11;28.22;27.11;29.34;;
67306;Laerm;57661;51.436;5.978;2023-04-05T00:13:21;28.19;27.26;29.05;;
67306;Laerm;57661;51.436;5.978;2023-04-05T00:13:32;28.24;27.44;29.23;;
67306;Laerm;57661;51.436;5.978;2023-04-05T00:13:42;28.26;27.15;29.47;;
67306;Laerm;57661;51.436;5.978;2023-04-05T00:13:52;28.25;27.31;29.21;;
67306;Laerm;57661;51.436;5.978;2023-04-05T00:14:02;28.20;27.25;28.86;;
67306;Laerm;57661;51.436;5.978;2023-04-05T00:14:13;28.24;27.41;29.10;;
67306;Laerm;57661;51.436;5.978;2023-04-05T00:14:23;28.26;27.59;29.29;;
67306;Laerm;57661;51.436;5.978;2023-04-05T00:14:34;34.45;27.33;44.85;;
67306;Laerm;57661;51.436;5.978;2023-04-05T00:14:44;35.99;30.67;41.97;;
67306;Laerm;57661;51.436;5.978;2023-04-05T00:14:54;35.11;27.24;43.29;;
67306;Laerm;57661;51.436;5.978;2023-04-05T00:15:05;28.32;27.18;29.26;;
67306;Laerm;57661;51.436;5.978;2023-04-05T00:15:15;28.27;27.10;29.48;;
67306;Laerm;57661;51.436;5.978;2023-04-05T00:15:26;28.24;27.15;29.24;;
67306;Laerm;57661;51.436;5.978;2023-04-05T00:15:36;28.22;27.21;29.10;;
67306;Laerm;57661;51.436;5.978;2023-04-05T00:15:47;28.26;27.15;29.20;;
67306;Laerm;57661;51.436;5.978;2023-04-05T00:15:57;28.21;26.97;29.13;;
67306;Laerm;57661;51.436;5.978;2023-04-05T00:16:09;28.23;27.28;29.25;;
67306;Laerm;57661;51.436;5.978;2023-04-05T00:16:19;28.22;26.98;29.03;;
67306;Laerm;57661;51.436;5.978;2023-04-05T00:16:30;28.20;27.37;28.99;;
67306;Laerm;57661;51.436;5.978;2023-04-05T00:16:40;28.20;27.27;28.96;;
67306;Laerm;57661;51.436;5.978;2023-04-05T00:16:50;28.21;27.11;29.22;;
67306;Laerm;57661;51.436;5.978;2023-04-05T00:17:00;28.23;27.28;29.05;;
67306;Laerm;57661;51.436;5.978;2023-04-05T00:17:11;28.24;27.30;29.37;;
67306;Laerm;57661;51.436;5.978;2023-04-05T00:17:22;28.25;27.39;31.16;;
67306;Laerm;57661;51.436;5.978;2023-04-05T00:17:32;28.26;27.23;29.37;;
67306;Laerm;57661;51.436;5.978;2023-04-05T00:17:44;28.40;27.02;29.66;;
67306;Laerm;57661;51.436;5.978;2023-04-05T00:17:54;28.24;27.31;29.36;;
67306;Laerm;57661;51.436;5.978;2023-04-05T00:18:04;28.24;27.28;29.03;;
67306;Laerm;57661;51.436;5.978;2023-04-05T00:18:15;28.24;27.08;28.99;;
67306;Laerm;57661;51.436;5.978;2023-04-05T00:18:31;28.22;26.87;29.13;;
67306;Laerm;57661;51.436;5.978;2023-04-05T00:18:44;28.20;27.38;29.14;;
67306;Laerm;57661;51.436;5.978;2023-04-05T00:18:55;28.21;27.21;29.26;;
67306;Laerm;57661;51.436;5.978;2023-04-05T00:19:05;28.22;27.29;29.20;;
67306;Laerm;57661;51.436;5.978;2023-04-05T00:19:16;28.22;27.31;29.14;;
67306;Laerm;57661;51.436;5.978;2023-04-05T00:19:26;28.25;27.37;29.05;;
67306;Laerm;57661;51.436;5.978;2023-04-05T00:19:36;28.21;27.15;29.10;;
67306;Laerm;57661;51.436;5.978;2023-04-05T00:19:47;28.24;27.33;29.14;;
67306;Laerm;57661;51.436;5.978;2023-04-05T00:20:00;28.23;27.32;29.09;;
67306;Laerm;57661;51.436;5.978;2023-04-05T00:20:11;28.24;27.36;29.07;;
67306;Laerm;57661;51.436;5.978;2023-04-05T00:20:21;28.24;27.43;29.03;;
67306;Laerm;57661;51.436;5.978;2023-04-05T00:20:31;28.25;27.37;29.19;;
67306;Laerm;57661;51.436;5.978;2023-04-05T00:20:42;28.19;27.22;29.08;;
67306;Laerm;57661;51.436;5.978;2023-04-05T00:20:53;28.19;27.20;29.04;;
67306;Laerm;57661;51.436;5.978;2023-04-05T00:21:04;28.23;27.23;29.17;;
67306;Laerm;57661;51.436;5.978;2023-04-05T00:21:14;28.23;27.26;29.00;;
67306;Laerm;57661;51.436;5.978;2023-04-05T00:21:25;28.24;27.46;29.00;;
67306;Laerm;57661;51.436;5.978;2023-04-05T00:21:35;28.25;27.11;29.59;;
67306;Laerm;57661;51.436;5.978;2023-04-05T00:21:47;28.24;27.37;29.28;;
67306;Laerm;57661;51.436;5.978;2023-04-05T00:21:57;28.25;27.38;29.05;;
67306;Laerm;57661;51.436;5.978;2023-04-05T00:22:07;38.17;27.66;46.17;;
67306;Laerm;57661;51.436;5.978;2023-04-05T00:22:19;38.53;33.05;44.71;;
67306;Laerm;57661;51.436;5.978;2023-04-05T00:22:34;30.07;27.49;38.24;;
67306;Laerm;57661;51.436;5.978;2023-04-05T00:22:45;28.27;27.41;29.54;;
67306;Laerm;57661;51.436;5.978;2023-04-05T00:22:56;28.23;27.41;29.29;;
67306;Laerm;57661;51.436;5.978;2023-04-05T00:23:06;28.22;27.26;29.24;;
67306;Laerm;57661;51.436;5.978;2023-04-05T00:23:19;28.23;27.14;29.27;;
67306;Laerm;57661;51.436;5.978;2023-04-05T00:23:30;28.18;27.32;28.95;;
67306;Laerm;57661;51.436;5.978;2023-04-05T00:23:49;28.22;27.01;29.06;;
67306;Laerm;57661;51.436;5.978;2023-04-05T00:24:00;28.22;27.20;29.28;;
67306;Laerm;57661;51.436;5.978;2023-04-05T00:24:10;28.22;27.12;29.51;;
67306;Laerm;57661;51.436;5.978;2023-04-05T00:24:24;28.27;27.42;29.53;;
67306;Laerm;57661;51.436;5.978;2023-04-05T00:24:34;28.25;27.04;29.32;;
67306;Laerm;57661;51.436;5.978;2023-04-05T00:24:47;28.23;27.28;29.06;;
67306;Laerm;57661;51.436;5.978;2023-04-05T00:24:58;28.23;27.42;29.22;;
67306;Laerm;57661;51.436;5.978;2023-04-05T00:25:08;28.21;27.23;29.08;;
67306;Laerm;57661;51.436;5.978;2023-04-05T00:25:18;28.24;27.10;29.15;;
67306;Laerm;57661;51.436;5.978;2023-04-05T00:25:30;28.19;27.23;29.10;;
67306;Laerm;57661;51.436;5.978;2023-04-05T00:25:41;28.20;26.91;28.96;;
67306;Laerm;57661;51.436;5.978;2023-04-05T00:25:51;28.20;27.08;29.00;;
67306;Laerm;57661;51.436;5.978;2023-04-05T00:26:02;28.20;27.34;29.19;;
67306;Laerm;57661;51.436;5.978;2023-04-05T00:26:12;28.21;27.31;29.02;;
67306;Laerm;57661;51.436;5.978;2023-04-05T00:26:23;28.22;27.22;29.09;;
67306;Laerm;57661;51.436;5.978;2023-04-05T00:26:33;28.22;26.96;29.16;;
67306;Laerm;57661;51.436;5.978;2023-04-05T00:26:43;28.19;27.05;28.97;;
67306;Laerm;57661;51.436;5.978;2023-04-05T00:26:54;28.20;27.28;29.30;;
67306;Laerm;57661;51.436;5.978;2023-04-05T00:27:05;28.19;27.21;29.07;;
67306;Laerm;57661;51.436;5.978;2023-04-05T00:27:15;28.22;27.23;29.41;;
67306;Laerm;57661;51.436;5.978;2023-04-05T00:27:25;28.21;27.40;29.24;;
67306;Laerm;57661;51.436;5.978;2023-04-05T00:27:36;28.22;27.24;29.19;;
67306;Laerm;57661;51.436;5.978;2023-04-05T00:27:46;28.23;27.28;29.09;;
67306;Laerm;57661;51.436;5.978;2023-04-05T00:27:56;28.21;27.43;29.00;;
67306;Laerm;57661;51.436;5.978;2023-04-05T00:28:06;28.25;27.44;29.07;;
67306;Laerm;57661;51.436;5.978;2023-04-05T00:28:17;28.30;27.22;29.42;;
67306;Laerm;57661;51.436;5.978;2023-04-05T00:28:27;28.24;27.03;29.28;;
67306;Laerm;57661;51.436;5.978;2023-04-05T00:28:37;28.22;27.46;29.13;;
67306;Laerm;57661;51.436;5.978;2023-04-05T00:28:48;28.19;27.20;29.10;;
67306;Laerm;57661;51.436;5.978;2023-04-05T00:28:58;28.22;27.21;29.01;;
67306;Laerm;57661;51.436;5.978;2023-04-05T00:29:08;28.21;26.96;29.07;;
67306;Laerm;57661;51.436;5.978;2023-04-05T00:29:18;28.22;27.35;28.90;;
67306;Laerm;57661;51.436;5.978;2023-04-05T00:29:30;28.19;27.23;29.09;;
67306;Laerm;57661;51.436;5.978;2023-04-05T00:29:40;28.23;27.29;29.31;;
67306;Laerm;57661;51.436;5.978;2023-04-05T00:29:50;28.23;27.47;29.12;;
67306;Laerm;57661;51.436;5.978;2023-04-05T00:30:00;28.22;27.07;28.95;;
67306;Laerm;57661;51.436;5.978;2023-04-05T00:30:11;28.22;27.43;29.29;;
67306;Laerm;57661;51.436;5.978;2023-04-05T00:30:21;28.24;26.89;29.04;;
67306;Laerm;57661;51.436;5.978;2023-04-05T00:30:32;28.27;27.43;29.08;;
67306;Laerm;57661;51.436;5.978;2023-04-05T00:30:42;28.28;27.32;29.09;;
67306;Laerm;57661;51.436;5.978;2023-04-05T00:30:53;28.29;27.48;29.23;;
67306;Laerm;57661;51.436;5.978;2023-04-05T00:31:03;28.29;27.20;29.24;;
67306;Laerm;57661;51.436;5.978;2023-04-05T00:31:14;28.62;27.26;33.23;;
67306;Laerm;57661;51.436;5.978;2023-04-05T00:31:24;39.08;27.93;48.28;;
67306;Laerm;57661;51.436;5.978;2023-04-05T00:31:34;38.39;33.64;43.66;;
67306;Laerm;57661;51.436;5.978;2023-04-05T00:31:45;37.39;30.56;42.24;;
67306;Laerm;57661;51.436;5.978;2023-04-05T00:31:55;29.72;27.29;37.35;;
67306;Laerm;57661;51.436;5.978;2023-04-05T00:32:05;28.28;27.29;29.41;;
67306;Laerm;57661;51.436;5.978;2023-04-05T00:32:15;28.26;26.92;29.30;;
67306;Laerm;57661;51.436;5.978;2023-04-05T00:32:26;28.26;27.39;29.17;;
67306;Laerm;57661;51.436;5.978;2023-04-05T00:32:36;28.24;27.43;29.18;;
67306;Laerm;57661;51.436;5.978;2023-04-05T00:32:47;28.21;27.26;29.24;;
67306;Laerm;57661;51.436;5.978;2023-04-05T00:32:57;28.26;27.23;29.29;;
67306;Laerm;57661;51.436;5.978;2023-04-05T00:33:07;28.21;27.38;28.95;;
67306;Laerm;57661;51.436;5.978;2023-04-05T00:33:18;28.27;27.43;29.40;;
67306;Laerm;57661;51.436;5.978;2023-04-05T00:33:28;28.22;27.20;29.36;;
67306;Laerm;57661;51.436;5.978;2023-04-05T00:33:38;28.25;27.40;29.25;;
67306;Laerm;57661;51.436;5.978;2023-04-05T00:33:48;28.21;27.08;29.16;;
67306;Laerm;57661;51.436;5.978;2023-04-05T00:33:58;28.26;27.35;29.15;;
67306;Laerm;57661;51.436;5.978;2023-04-05T00:34:09;28.23;27.09;29.14;;
67306;Laerm;57661;51.436;5.978;2023-04-05T00:34:21;28.21;27.35;29.08;;
67306;Laerm;57661;51.436;5.978;2023-04-05T00:34:31;28.23;27.12;29.15;;
67306;Laerm;57661;51.436;5.978;2023-04-05T00:34:42;28.25;27.37;29.75;;
67306;Laerm;57661;51.436;5.978;2023-04-05T00:34:52;28.27;27.29;29.20;;
67306;Laerm;57661;51.436;5.978;2023-04-05T00:35:03;28.28;27.36;29.23;;
67306;Laerm;57661;51.436;5.978;2023-04-05T00:35:13;36.88;27.46;45.76;;
67306;Laerm;57661;51.436;5.978;2023-04-05T00:35:25;38.65;33.42;44.23;;
67306;Laerm;57661;51.436;5.978;2023-04-05T00:35:36;39.41;32.31;45.59;;
67306;Laerm;57661;51.436;5.978;2023-04-05T00:35:46;30.02;27.84;36.27;;
67306;Laerm;57661;51.436;5.978;2023-04-05T00:35:56;28.60;27.68;29.46;;
67306;Laerm;57661;51.436;5.978;2023-04-05T00:36:13;28.41;27.52;29.33;;
67306;Laerm;57661;51.436;5.978;2023-04-05T00:36:24;28.29;27.30;29.16;;
67306;Laerm;57661;51.436;5.978;2023-04-05T00:36:35;28.25;27.16;29.11;;
67306;Laerm;57661;51.436;5.978;2023-04-05T00:36:45;28.26;27.26;29.37;;
67306;Laerm;57661;51.436;5.978;2023-04-05T00:36:55;28.23;27.28;29.32;;
67306;Laerm;57661;51.436;5.978;2023-04-05T00:37:06;28.22;27.29;29.38;;
67306;Laerm;57661;51.436;5.978;2023-04-05T00:37:16;28.22;27.32;29.10;;
67306;Laerm;57661;51.436;5.978;2023-04-05T00:37:26;28.25;27.29;29.08;;
67306;Laerm;57661;51.436;5.978;2023-04-05T00:37:36;28.23;27.31;29.22;;
67306;Laerm;57661;51.436;5.978;2023-04-05T00:37:46;28.23;27.47;29.17;;
67306;Laerm;57661;51.436;5.978;2023-04-05T00:37:57;28.20;27.18;29.03;;
67306;Laerm;57661;51.436;5.978;2023-04-05T00:38:07;28.18;27.36;29.05;;
67306;Laerm;57661;51.436;5.978;2023-04-05T00:38:17;28.23;27.17;28.94;;
67306;Laerm;57661;51.436;5.978;2023-04-05T00:38:27;28.23;27.25;29.12;;
67306;Laerm;57661;51.436;5.978;2023-04-05T00:38:38;28.21;27.13;28.98;;
67306;Laerm;57661;51.436;5.978;2023-04-05T00:38:48;28.26;27.18;29.40;;
67306;Laerm;57661;51.436;5.978;2023-04-05T00:38:58;28.22;27.29;29.11;;
67306;Laerm;57661;51.436;5.978;2023-04-05T00:39:09;28.24;27.20;29.28;;
67306;Laerm;57661;51.436;5.978;2023-04-05T00:39:19;28.24;27.28;29.09;;
67306;Laerm;57661;51.436;5.978;2023-04-05T00:39:29;28.24;27.23;29.13;;
67306;Laerm;57661;51.436;5.978;2023-04-05T00:39:40;28.22;27.23;28.97;;
67306;Laerm;57661;51.436;5.978;2023-04-05T00:39:50;28.22;27.10;28.97;;
67306;Laerm;57661;51.436;5.978;2023-04-05T00:40:02;28.19;27.39;29.08;;
67306;Laerm;57661;51.436;5.978;2023-04-05T00:40:13;28.24;27.15;29.33;;
67306;Laerm;57661;51.436;5.978;2023-04-05T00:40:23;28.24;27.38;29.10;;
67306;Laerm;57661;51.436;5.978;2023-04-05T00:40:34;28.23;27.40;29.39;;
67306;Laerm;57661;51.436;5.978;2023-04-05T00:40:45;28.27;26.91;29.37;;
67306;Laerm;57661;51.436;5.978;2023-04-05T00:40:55;28.19;26.90;29.25;;
67306;Laerm;57661;51.436;5.978;2023-04-05T00:41:06;28.23;27.19;29.15;;
67306;Laerm;57661;51.436;5.978;2023-04-05T00:41:16;28.20;27.34;29.03;;
67306;Laerm;57661;51.436;5.978;2023-04-05T00:41:26;28.22;27.32;29.20;;
67306;Laerm;57661;51.436;5.978;2023-04-05T00:41:36;28.18;27.44;29.06;;
67306;Laerm;57661;51.436;5.978;2023-04-05T00:41:47;28.30;27.33;32.46;;
67306;Laerm;57661;51.436;5.978;2023-04-05T00:41:57;28.22;27.29;29.14;;
67306;Laerm;57661;51.436;5.978;2023-04-05T00:42:07;28.22;27.21;29.21;;
67306;Laerm;57661;51.436;5.978;2023-04-05T00:42:18;28.22;27.22;29.15;;
67306;Laerm;57661;51.436;5.978;2023-04-05T00:42:28;28.22;27.27;29.13;;
67306;Laerm;57661;51.436;5.978;2023-04-05T00:42:38;28.18;27.15;28.91;;
67306;Laerm;57661;51.436;5.978;2023-04-05T00:42:49;28.19;26.95;29.27;;
67306;Laerm;57661;51.436;5.978;2023-04-05T00:42:59;28.19;27.36;29.12;;
67306;Laerm;57661;51.436;5.978;2023-04-05T00:43:09;28.25;27.40;29.10;;
67306;Laerm;57661;51.436;5.978;2023-04-05T00:43:20;28.23;27.42;29.34;;
67306;Laerm;57661;51.436;5.978;2023-04-05T00:43:30;28.23;27.29;29.09;;
67306;Laerm;57661;51.436;5.978;2023-04-05T00:43:40;28.20;27.22;29.17;;
67306;Laerm;57661;51.436;5.978;2023-04-05T00:43:51;28.21;27.39;29.11;;
67306;Laerm;57661;51.436;5.978;2023-04-05T00:44:01;28.23;27.28;29.10;;
67306;Laerm;57661;51.436;5.978;2023-04-05T00:44:12;28.27;27.39;31.06;;
67306;Laerm;57661;51.436;5.978;2023-04-05T00:44:23;28.26;27.33;29.16;;
67306;Laerm;57661;51.436;5.978;2023-04-05T00:44:33;28.24;27.45;29.06;;
67306;Laerm;57661;51.436;5.978;2023-04-05T00:44:44;28.22;27.09;29.14;;
67306;Laerm;57661;51.436;5.978;2023-04-05T00:44:54;28.24;27.08;29.49;;
67306;Laerm;57661;51.436;5.978;2023-04-05T00:45:05;28.21;27.10;29.08;;
67306;Laerm;57661;51.436;5.978;2023-04-05T00:45:15;28.22;27.12;29.10;;
67306;Laerm;57661;51.436;5.978;2023-04-05T00:45:26;28.24;27.22;29.09;;
67306;Laerm;57661;51.436;5.978;2023-04-05T00:45:36;28.22;27.16;29.01;;
67306;Laerm;57661;51.436;5.978;2023-04-05T00:45:46;28.25;27.27;29.17;;
67306;Laerm;57661;51.436;5.978;2023-04-05T00:45:56;28.24;27.38;29.21;;
67306;Laerm;57661;51.436;5.978;2023-04-05T00:46:07;28.19;27.39;29.08;;
67306;Laerm;57661;51.436;5.978;2023-04-05T00:46:17;28.21;27.32;29.14;;
67306;Laerm;57661;51.436;5.978;2023-04-05T00:46:28;28.25;27.03;29.22;;
67306;Laerm;57661;51.436;5.978;2023-04-05T00:46:38;28.20;26.84;29.20;;
67306;Laerm;57661;51.436;5.978;2023-04-05T00:46:49;28.22;27.19;29.10;;
67306;Laerm;57661;51.436;5.978;2023-04-05T00:47:03;28.21;27.36;29.16;;
67306;Laerm;57661;51.436;5.978;2023-04-05T00:47:14;28.22;27.15;29.01;;
67306;Laerm;57661;51.436;5.978;2023-04-05T00:47:24;28.24;26.92;29.03;;
67306;Laerm;57661;51.436;5.978;2023-04-05T00:47:35;28.21;27.14;29.04;;
67306;Laerm;57661;51.436;5.978;2023-04-05T00:47:45;28.20;27.27;29.12;;
67306;Laerm;57661;51.436;5.978;2023-04-05T00:47:56;28.23;27.39;29.19;;
67306;Laerm;57661;51.436;5.978;2023-04-05T00:48:06;28.18;27.29;28.91;;
67306;Laerm;57661;51.436;5.978;2023-04-05T00:48:16;28.21;27.21;29.05;;
67306;Laerm;57661;51.436;5.978;2023-04-05T00:48:27;28.23;27.29;29.25;;
67306;Laerm;57661;51.436;5.978;2023-04-05T00:48:38;28.24;26.87;29.14;;
67306;Laerm;57661;51.436;5.978;2023-04-05T00:48:48;28.24;27.31;29.24;;
67306;Laerm;57661;51.436;5.978;2023-04-05T00:48:58;28.23;27.14;29.18;;
67306;Laerm;57661;51.436;5.978;2023-04-05T00:49:09;28.22;27.34;29.13;;
67306;Laerm;57661;51.436;5.978;2023-04-05T00:49:19;28.22;27.16;29.15;;
67306;Laerm;57661;51.436;5.978;2023-04-05T00:49:30;28.22;27.40;29.15;;
67306;Laerm;57661;51.436;5.978;2023-04-05T00:49:41;28.23;27.29;29.02;;
67306;Laerm;57661;51.436;5.978;2023-04-05T00:49:51;28.27;27.41;29.38;;
67306;Laerm;57661;51.436;5.978;2023-04-05T00:50:02;28.25;27.55;29.22;;
67306;Laerm;57661;51.436;5.978;2023-04-05T00:50:12;28.21;27.18;29.01;;
67306;Laerm;57661;51.436;5.978;2023-04-05T00:50:25;28.25;27.05;29.03;;
67306;Laerm;57661;51.436;5.978;2023-04-05T00:50:39;28.21;27.14;29.08;;
67306;Laerm;57661;51.436;5.978;2023-04-05T00:50:51;28.22;27.30;29.08;;
67306;Laerm;57661;51.436;5.978;2023-04-05T00:51:01;28.20;27.03;28.96;;
67306;Laerm;57661;51.436;5.978;2023-04-05T00:51:11;28.22;27.40;29.07;;
67306;Laerm;57661;51.436;5.978;2023-04-05T00:51:22;28.24;27.50;29.37;;
67306;Laerm;57661;51.436;5.978;2023-04-05T00:51:33;28.24;27.18;29.15;;
67306;Laerm;57661;51.436;5.978;2023-04-05T00:51:43;28.24;27.33;29.14;;
67306;Laerm;57661;51.436;5.978;2023-04-05T00:51:54;28.24;27.26;29.51;;
67306;Laerm;57661;51.436;5.978;2023-04-05T00:52:05;28.28;27.29;29.22;;
67306;Laerm;57661;51.436;5.978;2023-04-05T00:52:16;28.21;27.34;29.21;;
67306;Laerm;57661;51.436;5.978;2023-04-05T00:52:27;28.23;27.44;29.01;;
67306;Laerm;57661;51.436;5.978;2023-04-05T00:52:37;28.24;26.92;29.15;;
67306;Laerm;57661;51.436;5.978;2023-04-05T00:52:49;28.20;27.32;29.13;;
67306;Laerm;57661;51.436;5.978;2023-04-05T00:53:00;28.24;27.34;29.10;;
67306;Laerm;57661;51.436;5.978;2023-04-05T00:53:10;28.22;27.14;29.23;;
67306;Laerm;57661;51.436;5.978;2023-04-05T00:53:21;28.24;27.42;29.25;;
67306;Laerm;57661;51.436;5.978;2023-04-05T00:53:31;28.22;27.19;29.30;;
67306;Laerm;57661;51.436;5.978;2023-04-05T00:53:42;28.23;27.14;29.18;;
67306;Laerm;57661;51.436;5.978;2023-04-05T00:53:53;28.22;27.44;28.96;;
67306;Laerm;57661;51.436;5.978;2023-04-05T00:54:04;28.23;27.13;29.28;;
67306;Laerm;57661;51.436;5.978;2023-04-05T00:54:16;28.24;27.07;29.28;;
67306;Laerm;57661;51.436;5.978;2023-04-05T00:54:27;28.26;27.14;29.18;;
67306;Laerm;57661;51.436;5.978;2023-04-05T00:54:38;28.23;26.90;29.31;;
67306;Laerm;57661;51.436;5.978;2023-04-05T00:54:49;28.21;27.29;29.20;;
67306;Laerm;57661;51.436;5.978;2023-04-05T00:55:00;28.24;27.29;29.04;;
67306;Laerm;57661;51.436;5.978;2023-04-05T00:55:11;28.21;27.26;29.06;;
67306;Laerm;57661;51.436;5.978;2023-04-05T00:55:22;28.22;27.36;29.38;;
67306;Laerm;57661;51.436;5.978;2023-04-05T00:55:32;28.24;27.16;29.23;;
67306;Laerm;57661;51.436;5.978;2023-04-05T00:55:44;28.23;27.26;29.18;;
67306;Laerm;57661;51.436;5.978;2023-04-05T00:55:56;28.22;27.13;29.15;;
67306;Laerm;57661;51.436;5.978;2023-04-05T00:56:06;28.23;27.14;29.06;;
67306;Laerm;57661;51.436;5.978;2023-04-05T00:56:17;28.27;27.45;29.26;;
67306;Laerm;57661;51.436;5.978;2023-04-05T00:56:28;28.23;27.36;29.03;;
67306;Laerm;57661;51.436;5.978;2023-04-05T00:56:39;28.24;27.36;29.26;;
67306;Laerm;57661;51.436;5.978;2023-04-05T00:56:50;28.23;27.34;28.99;;
67306;Laerm;57661;51.436;5.978;2023-04-05T00:57:02;28.21;27.18;29.15;;
67306;Laerm;57661;51.436;5.978;2023-04-05T00:57:12;28.21;27.26;29.07;;
67306;Laerm;57661;51.436;5.978;2023-04-05T00:57:22;28.24;27.38;29.12;;
67306;Laerm;57661;51.436;5.978;2023-04-05T00:57:34;28.23;27.35;29.87;;
67306;Laerm;57661;51.436;5.978;2023-04-05T00:57:48;28.22;27.28;29.12;;
67306;Laerm;57661;51.436;5.978;2023-04-05T00:57:59;28.23;26.96;29.20;;
67306;Laerm;57661;51.436;5.978;2023-04-05T00:58:09;28.26;27.39;29.17;;
67306;Laerm;57661;51.436;5.978;2023-04-05T00:58:20;28.23;27.40;29.07;;
67306;Laerm;57661;51.436;5.978;2023-04-05T00:58:33;28.22;27.20;29.16;;
67306;Laerm;57661;51.436;5.978;2023-04-05T00:58:43;28.28;27.32;33.05;;
67306;Laerm;57661;51.436;5.978;2023-04-05T00:58:53;28.25;27.35;30.83;;
67306;Laerm;57661;51.436;5.978;2023-04-05T00:59:04;28.25;27.39;29.15;;
67306;Laerm;57661;51.436;5.978;2023-04-05T00:59:14;28.23;27.30;29.05;;
67306;Laerm;57661;51.436;5.978;2023-04-05T00:59:25;28.23;27.48;29.45;;
67306;Laerm;57661;51.436;5.978;2023-04-05T00:59:35;28.23;27.18;29.07;;
67306;Laerm;57661;51.436;5.978;2023-04-05T00:59:45;28.24;27.12;29.36;;
67306;Laerm;57661;51.436;5.978;2023-04-05T00:59:59;28.23;27.08;29.18;;
67306;Laerm;57661;51.436;5.978;2023-04-05T01:00:09;28.63;27.15;33.20;;
67306;Laerm;57661;51.436;5.978;2023-04-05T01:00:20;28.42;27.26;32.63;;
67306;Laerm;57661;51.436;5.978;2023-04-05T01:00:31;28.26;27.36;29.31;;
67306;Laerm;57661;51.436;5.978;2023-04-05T01:00:42;28.33;27.34;29.44;;
67306;Laerm;57661;51.436;5.978;2023-04-05T01:01:12;35.76;27.56;42.28;;
67306;Laerm;57661;51.436;5.978;2023-04-05T01:01:25;36.35;27.59;47.06;;